sensor_id;sensor_type;location;lat;lon;timestamp;P1;durP1;ratioP1;P2;durP2;ratioP2
12535;SDS011;6334;48.696;2.114;2024-03-02T00:02:22;3.27;;;1.53;;
12535;SDS011;6334;48.696;2.114;2024-03-02T00:04:52;3.43;;;1.93;;
12535;SDS011;6334;48.696;2.114;2024-03-02T00:07:23;3.37;;;1.60;;
12535;SDS011;6334;48.696;2.114;2024-03-02T00:09:53;3.13;;;1.67;;
12535;SDS011;6334;48.696;2.114;2024-03-02T00:12:24;4.30;;;1.83;;
12535;SDS011;6334;48.696;2.114;2024-03-02T00:14:54;5.70;;;2.30;;
12535;SDS011;6334;48.696;2.114;2024-03-02T00:17:25;4.47;;;2.30;;
12535;SDS011;6334;48.696;2.114;2024-03-02T00:19:55;2.73;;;2.17;;
12535;SDS011;6334;48.696;2.114;2024-03-02T00:22:26;4.87;;;2.40;;
12535;SDS011;6334;48.696;2.114;2024-03-02T00:24:56;2.50;;;2.03;;
12535;SDS011;6334;48.696;2.114;2024-03-02T00:27:27;4.87;;;2.10;;
12535;SDS011;6334;48.696;2.114;2024-03-02T00:29:57;2.77;;;1.60;;
12535;SDS011;6334;48.696;2.114;2024-03-02T00:32:28;5.77;;;1.97;;
12535;SDS011;6334;48.696;2.114;2024-03-02T00:34:58;5.77;;;1.90;;
12535;SDS011;6334;48.696;2.114;2024-03-02T00:37:29;2.77;;;1.53;;
12535;SDS011;6334;48.696;2.114;2024-03-02T00:39:58;4.17;;;1.93;;
12535;SDS011;6334;48.696;2.114;2024-03-02T00:42:29;1.43;;;1.33;;
12535;SDS011;6334;48.696;2.114;2024-03-02T00:44:59;4.17;;;1.77;;
12535;SDS011;6334;48.696;2.114;2024-03-02T00:47:29;4.27;;;1.70;;
12535;SDS011;6334;48.696;2.114;2024-03-02T00:50:00;3.63;;;1.77;;
12535;SDS011;6334;48.696;2.114;2024-03-02T00:52:30;3.10;;;1.80;;
12535;SDS011;6334;48.696;2.114;2024-03-02T00:55:01;4.70;;;1.73;;
12535;SDS011;6334;48.696;2.114;2024-03-02T00:57:32;3.83;;;1.97;;
12535;SDS011;6334;48.696;2.114;2024-03-02T01:00:02;5.53;;;2.10;;
12535;SDS011;6334;48.696;2.114;2024-03-02T01:02:32;3.27;;;1.60;;
12535;SDS011;6334;48.696;2.114;2024-03-02T01:05:03;5.33;;;1.83;;
12535;SDS011;6334;48.696;2.114;2024-03-02T01:07:33;5.67;;;2.50;;
12535;SDS011;6334;48.696;2.114;2024-03-02T01:10:04;4.57;;;2.23;;
12535;SDS011;6334;48.696;2.114;2024-03-02T01:12:34;4.40;;;2.13;;
12535;SDS011;6334;48.696;2.114;2024-03-02T01:15:04;3.50;;;1.93;;
12535;SDS011;6334;48.696;2.114;2024-03-02T01:17:35;3.73;;;1.67;;
12535;SDS011;6334;48.696;2.114;2024-03-02T01:20:06;3.03;;;1.40;;
12535;SDS011;6334;48.696;2.114;2024-03-02T01:22:34;5.13;;;1.90;;
12535;SDS011;6334;48.696;2.114;2024-03-02T01:25:05;2.53;;;1.37;;
12535;SDS011;6334;48.696;2.114;2024-03-02T01:27:35;3.93;;;2.33;;
12535;SDS011;6334;48.696;2.114;2024-03-02T01:30:05;3.37;;;1.70;;
12535;SDS011;6334;48.696;2.114;2024-03-02T01:32:34;2.97;;;1.63;;
12535;SDS011;6334;48.696;2.114;2024-03-02T01:35:05;5.67;;;2.40;;
12535;SDS011;6334;48.696;2.114;2024-03-02T01:37:35;3.43;;;1.40;;
12535;SDS011;6334;48.696;2.114;2024-03-02T01:40:06;3.57;;;1.17;;
12535;SDS011;6334;48.696;2.114;2024-03-02T01:42:38;2.67;;;1.80;;
12535;SDS011;6334;48.696;2.114;2024-03-02T01:45:08;5.60;;;2.17;;
12535;SDS011;6334;48.696;2.114;2024-03-02T01:47:38;5.83;;;1.70;;
12535;SDS011;6334;48.696;2.114;2024-03-02T01:50:10;5.83;;;2.00;;
12535;SDS011;6334;48.696;2.114;2024-03-02T01:52:39;6.13;;;1.80;;
12535;SDS011;6334;48.696;2.114;2024-03-02T01:55:10;2.80;;;1.47;;
12535;SDS011;6334;48.696;2.114;2024-03-02T01:57:40;4.73;;;1.40;;
12535;SDS011;6334;48.696;2.114;2024-03-02T02:00:11;7.20;;;2.40;;
12535;SDS011;6334;48.696;2.114;2024-03-02T02:02:40;4.23;;;1.70;;
12535;SDS011;6334;48.696;2.114;2024-03-02T02:05:11;4.67;;;2.03;;
12535;SDS011;6334;48.696;2.114;2024-03-02T02:07:43;7.10;;;2.33;;
12535;SDS011;6334;48.696;2.114;2024-03-02T02:10:12;5.37;;;2.20;;
12535;SDS011;6334;48.696;2.114;2024-03-02T02:12:43;4.60;;;2.03;;
12535;SDS011;6334;48.696;2.114;2024-03-02T02:15:25;5.73;;;2.23;;
12535;SDS011;6334;48.696;2.114;2024-03-02T02:17:53;5.13;;;2.23;;
12535;SDS011;6334;48.696;2.114;2024-03-02T02:20:23;4.50;;;1.73;;
12535;SDS011;6334;48.696;2.114;2024-03-02T02:22:56;5.63;;;2.10;;
12535;SDS011;6334;48.696;2.114;2024-03-02T02:25:27;3.10;;;1.77;;
12535;SDS011;6334;48.696;2.114;2024-03-02T02:27:57;5.03;;;1.73;;
12535;SDS011;6334;48.696;2.114;2024-03-02T02:30:28;3.93;;;2.00;;
12535;SDS011;6334;48.696;2.114;2024-03-02T02:32:58;4.00;;;1.77;;
12535;SDS011;6334;48.696;2.114;2024-03-02T02:35:27;6.63;;;2.00;;
12535;SDS011;6334;48.696;2.114;2024-03-02T02:37:57;4.57;;;1.80;;
12535;SDS011;6334;48.696;2.114;2024-03-02T02:40:27;4.00;;;1.70;;
12535;SDS011;6334;48.696;2.114;2024-03-02T02:42:57;3.17;;;1.90;;
12535;SDS011;6334;48.696;2.114;2024-03-02T02:45:27;2.17;;;1.73;;
12535;SDS011;6334;48.696;2.114;2024-03-02T02:47:58;5.37;;;1.70;;
12535;SDS011;6334;48.696;2.114;2024-03-02T02:50:27;4.97;;;2.00;;
12535;SDS011;6334;48.696;2.114;2024-03-02T02:52:58;4.17;;;2.00;;
12535;SDS011;6334;48.696;2.114;2024-03-02T02:55:27;3.03;;;1.90;;
12535;SDS011;6334;48.696;2.114;2024-03-02T02:57:58;2.03;;;1.67;;
12535;SDS011;6334;48.696;2.114;2024-03-02T03:00:27;6.10;;;1.77;;
12535;SDS011;6334;48.696;2.114;2024-03-02T03:02:58;5.03;;;1.93;;
12535;SDS011;6334;48.696;2.114;2024-03-02T03:05:27;5.13;;;1.60;;
12535;SDS011;6334;48.696;2.114;2024-03-02T03:07:58;4.70;;;2.27;;
12535;SDS011;6334;48.696;2.114;2024-03-02T03:10:27;4.33;;;1.73;;
12535;SDS011;6334;48.696;2.114;2024-03-02T03:12:58;3.37;;;1.87;;
12535;SDS011;6334;48.696;2.114;2024-03-02T03:15:28;5.30;;;1.90;;
12535;SDS011;6334;48.696;2.114;2024-03-02T03:17:59;5.30;;;1.80;;
12535;SDS011;6334;48.696;2.114;2024-03-02T03:20:29;2.93;;;2.17;;
12535;SDS011;6334;48.696;2.114;2024-03-02T03:22:59;4.90;;;2.33;;
12535;SDS011;6334;48.696;2.114;2024-03-02T03:25:28;7.13;;;2.43;;
12535;SDS011;6334;48.696;2.114;2024-03-02T03:27:58;5.30;;;2.13;;
12535;SDS011;6334;48.696;2.114;2024-03-02T03:30:28;7.73;;;2.43;;
12535;SDS011;6334;48.696;2.114;2024-03-02T03:32:57;6.00;;;2.00;;
12535;SDS011;6334;48.696;2.114;2024-03-02T03:35:28;4.63;;;1.83;;
12535;SDS011;6334;48.696;2.114;2024-03-02T03:37:58;4.87;;;1.90;;
12535;SDS011;6334;48.696;2.114;2024-03-02T03:40:28;7.43;;;2.63;;
12535;SDS011;6334;48.696;2.114;2024-03-02T03:42:58;3.97;;;1.73;;
12535;SDS011;6334;48.696;2.114;2024-03-02T03:45:29;5.03;;;2.03;;
12535;SDS011;6334;48.696;2.114;2024-03-02T03:47:59;7.30;;;2.00;;
12535;SDS011;6334;48.696;2.114;2024-03-02T03:50:30;6.33;;;2.07;;
12535;SDS011;6334;48.696;2.114;2024-03-02T03:53:00;7.33;;;2.20;;
12535;SDS011;6334;48.696;2.114;2024-03-02T03:55:30;2.80;;;1.80;;
12535;SDS011;6334;48.696;2.114;2024-03-02T03:58:00;5.13;;;2.07;;
12535;SDS011;6334;48.696;2.114;2024-03-02T04:00:30;8.83;;;2.27;;
12535;SDS011;6334;48.696;2.114;2024-03-02T04:03:00;4.03;;;1.87;;
12535;SDS011;6334;48.696;2.114;2024-03-02T04:05:31;5.57;;;1.97;;
12535;SDS011;6334;48.696;2.114;2024-03-02T04:08:00;3.67;;;2.07;;
12535;SDS011;6334;48.696;2.114;2024-03-02T04:10:31;4.47;;;1.83;;
12535;SDS011;6334;48.696;2.114;2024-03-02T04:13:01;4.83;;;2.00;;
12535;SDS011;6334;48.696;2.114;2024-03-02T04:15:32;6.87;;;2.17;;
12535;SDS011;6334;48.696;2.114;2024-03-02T04:18:02;3.40;;;1.90;;
12535;SDS011;6334;48.696;2.114;2024-03-02T04:20:33;6.03;;;1.83;;
12535;SDS011;6334;48.696;2.114;2024-03-02T04:23:03;9.80;;;2.50;;
12535;SDS011;6334;48.696;2.114;2024-03-02T04:25:34;6.50;;;1.73;;
12535;SDS011;6334;48.696;2.114;2024-03-02T04:28:04;5.13;;;1.90;;
12535;SDS011;6334;48.696;2.114;2024-03-02T04:30:34;3.63;;;1.80;;
12535;SDS011;6334;48.696;2.114;2024-03-02T04:33:05;6.33;;;2.00;;
12535;SDS011;6334;48.696;2.114;2024-03-02T04:35:38;5.57;;;2.10;;
12535;SDS011;6334;48.696;2.114;2024-03-02T04:38:06;5.40;;;1.97;;
12535;SDS011;6334;48.696;2.114;2024-03-02T04:40:36;4.97;;;2.00;;
12535;SDS011;6334;48.696;2.114;2024-03-02T04:43:07;4.47;;;2.30;;
12535;SDS011;6334;48.696;2.114;2024-03-02T04:45:38;7.33;;;2.47;;
12535;SDS011;6334;48.696;2.114;2024-03-02T04:48:08;6.43;;;2.23;;
12535;SDS011;6334;48.696;2.114;2024-03-02T04:50:38;2.87;;;1.67;;
12535;SDS011;6334;48.696;2.114;2024-03-02T04:53:09;5.70;;;1.83;;
12535;SDS011;6334;48.696;2.114;2024-03-02T04:55:39;6.77;;;1.83;;
12535;SDS011;6334;48.696;2.114;2024-03-02T04:58:10;4.30;;;1.67;;
12535;SDS011;6334;48.696;2.114;2024-03-02T05:00:40;4.60;;;2.00;;
12535;SDS011;6334;48.696;2.114;2024-03-02T05:03:10;7.13;;;2.27;;
12535;SDS011;6334;48.696;2.114;2024-03-02T05:05:40;6.40;;;2.17;;
12535;SDS011;6334;48.696;2.114;2024-03-02T05:08:10;7.00;;;2.07;;
12535;SDS011;6334;48.696;2.114;2024-03-02T05:10:41;6.57;;;1.97;;
12535;SDS011;6334;48.696;2.114;2024-03-02T05:13:11;3.63;;;1.50;;
12535;SDS011;6334;48.696;2.114;2024-03-02T05:15:42;4.43;;;2.07;;
12535;SDS011;6334;48.696;2.114;2024-03-02T05:18:12;5.93;;;1.93;;
12535;SDS011;6334;48.696;2.114;2024-03-02T05:20:43;4.93;;;1.83;;
12535;SDS011;6334;48.696;2.114;2024-03-02T05:23:13;4.67;;;2.13;;
12535;SDS011;6334;48.696;2.114;2024-03-02T05:25:44;4.20;;;1.43;;
12535;SDS011;6334;48.696;2.114;2024-03-02T05:28:14;4.60;;;2.00;;
12535;SDS011;6334;48.696;2.114;2024-03-02T05:30:45;4.90;;;1.73;;
12535;SDS011;6334;48.696;2.114;2024-03-02T05:33:15;5.03;;;1.70;;
12535;SDS011;6334;48.696;2.114;2024-03-02T05:35:45;6.80;;;2.43;;
12535;SDS011;6334;48.696;2.114;2024-03-02T05:38:19;6.30;;;1.80;;
12535;SDS011;6334;48.696;2.114;2024-03-02T05:40:49;5.80;;;2.03;;
12535;SDS011;6334;48.696;2.114;2024-03-02T05:43:19;4.67;;;1.90;;
12535;SDS011;6334;48.696;2.114;2024-03-02T05:45:50;5.77;;;1.83;;
12535;SDS011;6334;48.696;2.114;2024-03-02T05:48:20;5.13;;;2.10;;
12535;SDS011;6334;48.696;2.114;2024-03-02T05:50:51;6.10;;;1.73;;
12535;SDS011;6334;48.696;2.114;2024-03-02T05:53:21;3.20;;;1.53;;
12535;SDS011;6334;48.696;2.114;2024-03-02T05:55:52;5.30;;;2.43;;
12535;SDS011;6334;48.696;2.114;2024-03-02T05:58:22;4.13;;;1.63;;
12535;SDS011;6334;48.696;2.114;2024-03-02T06:01:11;4.87;;;1.90;;
12535;SDS011;6334;48.696;2.114;2024-03-02T06:03:41;5.37;;;2.07;;
12535;SDS011;6334;48.696;2.114;2024-03-02T06:06:11;6.00;;;2.10;;
12535;SDS011;6334;48.696;2.114;2024-03-02T06:08:42;5.70;;;2.00;;
12535;SDS011;6334;48.696;2.114;2024-03-02T06:11:12;7.27;;;2.03;;
12535;SDS011;6334;48.696;2.114;2024-03-02T06:13:42;4.47;;;1.80;;
12535;SDS011;6334;48.696;2.114;2024-03-02T06:16:13;6.80;;;2.13;;
12535;SDS011;6334;48.696;2.114;2024-03-02T06:18:43;6.80;;;2.23;;
12535;SDS011;6334;48.696;2.114;2024-03-02T06:21:14;6.37;;;1.80;;
12535;SDS011;6334;48.696;2.114;2024-03-02T06:23:44;5.90;;;2.07;;
12535;SDS011;6334;48.696;2.114;2024-03-02T06:26:15;6.53;;;1.77;;
12535;SDS011;6334;48.696;2.114;2024-03-02T06:28:45;5.07;;;2.10;;
12535;SDS011;6334;48.696;2.114;2024-03-02T06:31:16;2.87;;;1.93;;
12535;SDS011;6334;48.696;2.114;2024-03-02T06:33:46;6.67;;;1.70;;
12535;SDS011;6334;48.696;2.114;2024-03-02T06:36:16;5.50;;;2.30;;
12535;SDS011;6334;48.696;2.114;2024-03-02T06:38:47;4.53;;;1.67;;
12535;SDS011;6334;48.696;2.114;2024-03-02T06:41:17;7.97;;;2.57;;
12535;SDS011;6334;48.696;2.114;2024-03-02T06:43:47;5.50;;;2.17;;
12535;SDS011;6334;48.696;2.114;2024-03-02T06:46:17;5.97;;;2.37;;
12535;SDS011;6334;48.696;2.114;2024-03-02T06:48:47;4.47;;;1.77;;
12535;SDS011;6334;48.696;2.114;2024-03-02T06:51:18;6.60;;;2.23;;
12535;SDS011;6334;48.696;2.114;2024-03-02T06:53:47;6.80;;;2.07;;
12535;SDS011;6334;48.696;2.114;2024-03-02T06:56:18;3.73;;;2.33;;
12535;SDS011;6334;48.696;2.114;2024-03-02T06:58:48;4.90;;;1.97;;
12535;SDS011;6334;48.696;2.114;2024-03-02T07:01:19;7.17;;;1.77;;
12535;SDS011;6334;48.696;2.114;2024-03-02T07:03:48;5.40;;;2.17;;
12535;SDS011;6334;48.696;2.114;2024-03-02T07:06:20;4.93;;;2.10;;
12535;SDS011;6334;48.696;2.114;2024-03-02T07:08:49;5.97;;;2.13;;
12535;SDS011;6334;48.696;2.114;2024-03-02T07:11:19;3.37;;;1.80;;
12535;SDS011;6334;48.696;2.114;2024-03-02T07:13:52;6.63;;;2.50;;
12535;SDS011;6334;48.696;2.114;2024-03-02T07:16:23;5.30;;;2.03;;
12535;SDS011;6334;48.696;2.114;2024-03-02T07:18:56;5.10;;;2.23;;
12535;SDS011;6334;48.696;2.114;2024-03-02T07:21:27;4.73;;;2.33;;
12535;SDS011;6334;48.696;2.114;2024-03-02T07:23:58;5.17;;;2.40;;
12535;SDS011;6334;48.696;2.114;2024-03-02T07:26:29;7.23;;;2.87;;
12535;SDS011;6334;48.696;2.114;2024-03-02T07:28:59;5.53;;;2.40;;
12535;SDS011;6334;48.696;2.114;2024-03-02T07:31:29;5.60;;;2.33;;
12535;SDS011;6334;48.696;2.114;2024-03-02T07:34:00;7.13;;;2.27;;
12535;SDS011;6334;48.696;2.114;2024-03-02T07:36:30;6.17;;;2.30;;
12535;SDS011;6334;48.696;2.114;2024-03-02T07:39:01;5.87;;;2.27;;
12535;SDS011;6334;48.696;2.114;2024-03-02T07:41:31;6.20;;;1.87;;
12535;SDS011;6334;48.696;2.114;2024-03-02T07:44:02;4.77;;;2.33;;
12535;SDS011;6334;48.696;2.114;2024-03-02T07:46:33;8.20;;;2.70;;
12535;SDS011;6334;48.696;2.114;2024-03-02T07:49:03;6.23;;;2.30;;
12535;SDS011;6334;48.696;2.114;2024-03-02T07:51:34;7.30;;;2.47;;
12535;SDS011;6334;48.696;2.114;2024-03-02T07:54:04;7.73;;;2.03;;
12535;SDS011;6334;48.696;2.114;2024-03-02T07:56:35;6.23;;;2.13;;
12535;SDS011;6334;48.696;2.114;2024-03-02T07:59:06;6.60;;;2.10;;
12535;SDS011;6334;48.696;2.114;2024-03-02T08:01:37;5.77;;;2.40;;
12535;SDS011;6334;48.696;2.114;2024-03-02T08:04:07;8.00;;;2.57;;
12535;SDS011;6334;48.696;2.114;2024-03-02T08:06:38;5.50;;;2.27;;
12535;SDS011;6334;48.696;2.114;2024-03-02T08:09:08;5.30;;;2.03;;
12535;SDS011;6334;48.696;2.114;2024-03-02T08:11:39;7.07;;;2.67;;
12535;SDS011;6334;48.696;2.114;2024-03-02T08:14:09;7.80;;;2.43;;
12535;SDS011;6334;48.696;2.114;2024-03-02T08:16:40;5.10;;;1.93;;
12535;SDS011;6334;48.696;2.114;2024-03-02T08:19:10;4.87;;;2.63;;
12535;SDS011;6334;48.696;2.114;2024-03-02T08:21:40;5.03;;;2.67;;
12535;SDS011;6334;48.696;2.114;2024-03-02T08:24:11;6.33;;;2.70;;
12535;SDS011;6334;48.696;2.114;2024-03-02T08:26:42;6.77;;;2.70;;
12535;SDS011;6334;48.696;2.114;2024-03-02T08:29:12;6.67;;;2.53;;
12535;SDS011;6334;48.696;2.114;2024-03-02T08:31:42;4.93;;;2.57;;
12535;SDS011;6334;48.696;2.114;2024-03-02T08:34:13;4.63;;;2.30;;
12535;SDS011;6334;48.696;2.114;2024-03-02T08:36:43;5.47;;;2.53;;
12535;SDS011;6334;48.696;2.114;2024-03-02T08:39:14;6.93;;;2.60;;
12535;SDS011;6334;48.696;2.114;2024-03-02T08:41:44;6.67;;;2.70;;
12535;SDS011;6334;48.696;2.114;2024-03-02T08:44:14;6.27;;;1.97;;
12535;SDS011;6334;48.696;2.114;2024-03-02T08:46:45;10.13;;;3.10;;
12535;SDS011;6334;48.696;2.114;2024-03-02T08:49:14;6.50;;;3.33;;
12535;SDS011;6334;48.696;2.114;2024-03-02T08:51:45;5.53;;;2.70;;
12535;SDS011;6334;48.696;2.114;2024-03-02T08:54:15;6.60;;;3.40;;
12535;SDS011;6334;48.696;2.114;2024-03-02T08:56:46;7.30;;;2.77;;
12535;SDS011;6334;48.696;2.114;2024-03-02T08:59:16;6.47;;;3.33;;
12535;SDS011;6334;48.696;2.114;2024-03-02T09:01:47;7.17;;;3.23;;
12535;SDS011;6334;48.696;2.114;2024-03-02T09:04:17;5.57;;;2.97;;
12535;SDS011;6334;48.696;2.114;2024-03-02T09:06:48;5.53;;;2.83;;
12535;SDS011;6334;48.696;2.114;2024-03-02T09:09:18;6.13;;;2.30;;
12535;SDS011;6334;48.696;2.114;2024-03-02T09:11:49;3.03;;;2.23;;
12535;SDS011;6334;48.696;2.114;2024-03-02T09:14:19;7.17;;;2.70;;
12535;SDS011;6334;48.696;2.114;2024-03-02T09:16:49;7.03;;;3.37;;
12535;SDS011;6334;48.696;2.114;2024-03-02T09:19:20;6.27;;;2.93;;
12535;SDS011;6334;48.696;2.114;2024-03-02T09:21:50;5.10;;;3.13;;
12535;SDS011;6334;48.696;2.114;2024-03-02T09:24:21;6.80;;;3.83;;
12535;SDS011;6334;48.696;2.114;2024-03-02T09:26:51;6.67;;;3.90;;
12535;SDS011;6334;48.696;2.114;2024-03-02T09:29:22;5.20;;;3.30;;
12535;SDS011;6334;48.696;2.114;2024-03-02T09:31:52;5.17;;;2.90;;
12535;SDS011;6334;48.696;2.114;2024-03-02T09:34:23;7.90;;;3.20;;
12535;SDS011;6334;48.696;2.114;2024-03-02T09:36:53;3.80;;;3.07;;
12535;SDS011;6334;48.696;2.114;2024-03-02T09:39:24;3.63;;;2.73;;
12535;SDS011;6334;48.696;2.114;2024-03-02T09:41:54;6.10;;;3.03;;
12535;SDS011;6334;48.696;2.114;2024-03-02T09:44:24;5.03;;;3.17;;
12535;SDS011;6334;48.696;2.114;2024-03-02T09:46:54;7.17;;;3.17;;
12535;SDS011;6334;48.696;2.114;2024-03-02T09:49:25;5.80;;;3.07;;
12535;SDS011;6334;48.696;2.114;2024-03-02T09:51:55;6.23;;;3.27;;
12535;SDS011;6334;48.696;2.114;2024-03-02T09:54:26;6.33;;;3.30;;
12535;SDS011;6334;48.696;2.114;2024-03-02T09:56:56;4.17;;;3.20;;
12535;SDS011;6334;48.696;2.114;2024-03-02T09:59:26;4.50;;;3.07;;
12535;SDS011;6334;48.696;2.114;2024-03-02T10:02:00;5.63;;;2.90;;
12535;SDS011;6334;48.696;2.114;2024-03-02T10:04:30;5.53;;;2.70;;
12535;SDS011;6334;48.696;2.114;2024-03-02T10:07:16;4.97;;;3.10;;
12535;SDS011;6334;48.696;2.114;2024-03-02T10:09:45;5.17;;;2.90;;
12535;SDS011;6334;48.696;2.114;2024-03-02T10:12:15;4.10;;;3.00;;
12535;SDS011;6334;48.696;2.114;2024-03-02T10:14:46;4.20;;;2.60;;
12535;SDS011;6334;48.696;2.114;2024-03-02T10:17:17;4.53;;;2.80;;
12535;SDS011;6334;48.696;2.114;2024-03-02T10:19:46;5.37;;;2.70;;
12535;SDS011;6334;48.696;2.114;2024-03-02T10:22:17;5.73;;;2.80;;
12535;SDS011;6334;48.696;2.114;2024-03-02T10:24:47;6.33;;;2.77;;
12535;SDS011;6334;48.696;2.114;2024-03-02T10:27:25;4.23;;;2.87;;
12535;SDS011;6334;48.696;2.114;2024-03-02T10:29:54;3.80;;;2.63;;
12535;SDS011;6334;48.696;2.114;2024-03-02T10:32:25;5.73;;;2.60;;
12535;SDS011;6334;48.696;2.114;2024-03-02T10:34:55;5.17;;;2.80;;
12535;SDS011;6334;48.696;2.114;2024-03-02T10:37:25;4.53;;;2.90;;
12535;SDS011;6334;48.696;2.114;2024-03-02T10:39:56;3.63;;;2.60;;
12535;SDS011;6334;48.696;2.114;2024-03-02T10:42:26;4.60;;;2.90;;
12535;SDS011;6334;48.696;2.114;2024-03-02T10:44:57;2.10;;;1.93;;
12535;SDS011;6334;48.696;2.114;2024-03-02T10:47:27;1.97;;;1.30;;
12535;SDS011;6334;48.696;2.114;2024-03-02T10:49:58;2.43;;;2.17;;
12535;SDS011;6334;48.696;2.114;2024-03-02T10:52:28;3.67;;;2.47;;
12535;SDS011;6334;48.696;2.114;2024-03-02T10:54:59;3.73;;;1.90;;
12535;SDS011;6334;48.696;2.114;2024-03-02T10:57:29;2.60;;;1.70;;
12535;SDS011;6334;48.696;2.114;2024-03-02T11:00:02;3.33;;;1.53;;
12535;SDS011;6334;48.696;2.114;2024-03-02T11:02:30;1.23;;;1.13;;
12535;SDS011;6334;48.696;2.114;2024-03-02T11:05:01;2.20;;;1.70;;
12535;SDS011;6334;48.696;2.114;2024-03-02T11:07:31;1.90;;;1.70;;
12535;SDS011;6334;48.696;2.114;2024-03-02T11:10:02;2.93;;;2.20;;
12535;SDS011;6334;48.696;2.114;2024-03-02T11:12:34;2.87;;;1.90;;
12535;SDS011;6334;48.696;2.114;2024-03-02T11:15:03;2.93;;;2.27;;
12535;SDS011;6334;48.696;2.114;2024-03-02T11:17:33;1.70;;;1.60;;
12535;SDS011;6334;48.696;2.114;2024-03-02T11:20:03;2.23;;;1.93;;
12535;SDS011;6334;48.696;2.114;2024-03-02T11:22:35;1.63;;;1.53;;
12535;SDS011;6334;48.696;2.114;2024-03-02T11:25:05;3.27;;;2.30;;
12535;SDS011;6334;48.696;2.114;2024-03-02T11:33:01;3.60;;;2.70;;
12535;SDS011;6334;48.696;2.114;2024-03-02T11:35:34;3.00;;;2.63;;
12535;SDS011;6334;48.696;2.114;2024-03-02T11:38:08;3.93;;;3.00;;
12535;SDS011;6334;48.696;2.114;2024-03-02T11:40:41;2.43;;;2.23;;
12535;SDS011;6334;48.696;2.114;2024-03-02T11:43:11;2.13;;;1.97;;
12535;SDS011;6334;48.696;2.114;2024-03-02T11:45:43;2.93;;;2.37;;
12535;SDS011;6334;48.696;2.114;2024-03-02T11:48:15;3.27;;;2.13;;
12535;SDS011;6334;48.696;2.114;2024-03-02T11:50:49;1.67;;;1.57;;
12535;SDS011;6334;48.696;2.114;2024-03-02T11:53:22;2.93;;;2.43;;
12535;SDS011;6334;48.696;2.114;2024-03-02T11:55:51;2.60;;;2.40;;
12535;SDS011;6334;48.696;2.114;2024-03-02T11:58:22;1.87;;;1.77;;
12535;SDS011;6334;48.696;2.114;2024-03-02T12:00:53;2.33;;;1.70;;
12535;SDS011;6334;48.696;2.114;2024-03-02T12:03:23;2.60;;;1.30;;
12535;SDS011;6334;48.696;2.114;2024-03-02T12:05:53;3.00;;;2.17;;
12535;SDS011;6334;48.696;2.114;2024-03-02T12:08:24;2.33;;;1.80;;
12535;SDS011;6334;48.696;2.114;2024-03-02T12:11:00;3.40;;;2.70;;
12535;SDS011;6334;48.696;2.114;2024-03-02T12:13:30;3.23;;;2.80;;
12535;SDS011;6334;48.696;2.114;2024-03-02T12:16:01;3.43;;;2.97;;
12535;SDS011;6334;48.696;2.114;2024-03-02T12:18:31;2.80;;;2.43;;
12535;SDS011;6334;48.696;2.114;2024-03-02T12:21:02;2.10;;;2.00;;
12535;SDS011;6334;48.696;2.114;2024-03-02T12:23:32;2.40;;;2.20;;
12535;SDS011;6334;48.696;2.114;2024-03-02T12:26:02;2.90;;;2.70;;
12535;SDS011;6334;48.696;2.114;2024-03-02T12:28:33;2.63;;;2.43;;
12535;SDS011;6334;48.696;2.114;2024-03-02T12:31:03;2.30;;;2.10;;
12535;SDS011;6334;48.696;2.114;2024-03-02T12:33:34;2.97;;;2.67;;
12535;SDS011;6334;48.696;2.114;2024-03-02T12:36:04;3.37;;;2.83;;
12535;SDS011;6334;48.696;2.114;2024-03-02T12:38:34;3.03;;;1.97;;
12535;SDS011;6334;48.696;2.114;2024-03-02T12:41:04;1.80;;;1.70;;
12535;SDS011;6334;48.696;2.114;2024-03-02T12:43:35;1.77;;;1.67;;
12535;SDS011;6334;48.696;2.114;2024-03-02T12:46:05;2.63;;;2.43;;
12535;SDS011;6334;48.696;2.114;2024-03-02T12:48:36;3.10;;;2.90;;
12535;SDS011;6334;48.696;2.114;2024-03-02T12:51:06;1.87;;;1.77;;
12535;SDS011;6334;48.696;2.114;2024-03-02T12:53:37;2.87;;;2.03;;
12535;SDS011;6334;48.696;2.114;2024-03-02T12:56:07;3.00;;;2.63;;
12535;SDS011;6334;48.696;2.114;2024-03-02T12:58:39;3.40;;;3.10;;
12535;SDS011;6334;48.696;2.114;2024-03-02T13:01:10;2.73;;;2.53;;
12535;SDS011;6334;48.696;2.114;2024-03-02T13:03:40;1.90;;;1.80;;
12535;SDS011;6334;48.696;2.114;2024-03-02T13:06:11;2.30;;;2.10;;
12535;SDS011;6334;48.696;2.114;2024-03-02T13:08:41;3.50;;;2.70;;
12535;SDS011;6334;48.696;2.114;2024-03-02T13:11:12;2.77;;;2.57;;
12535;SDS011;6334;48.696;2.114;2024-03-02T13:13:42;2.87;;;2.57;;
12535;SDS011;6334;48.696;2.114;2024-03-02T13:16:13;3.30;;;3.00;;
12535;SDS011;6334;48.696;2.114;2024-03-02T13:18:44;3.43;;;3.00;;
12535;SDS011;6334;48.696;2.114;2024-03-02T13:21:14;3.03;;;2.80;;
12535;SDS011;6334;48.696;2.114;2024-03-02T13:23:44;3.50;;;3.20;;
12535;SDS011;6334;48.696;2.114;2024-03-02T13:26:16;3.30;;;3.00;;
12535;SDS011;6334;48.696;2.114;2024-03-02T13:28:46;3.77;;;2.97;;
12535;SDS011;6334;48.696;2.114;2024-03-02T13:31:17;3.90;;;3.10;;
12535;SDS011;6334;48.696;2.114;2024-03-02T13:33:47;3.03;;;2.77;;
12535;SDS011;6334;48.696;2.114;2024-03-02T13:36:17;3.87;;;2.90;;
12535;SDS011;6334;48.696;2.114;2024-03-02T13:38:46;3.13;;;2.60;;
12535;SDS011;6334;48.696;2.114;2024-03-02T13:41:16;3.43;;;3.07;;
12535;SDS011;6334;48.696;2.114;2024-03-02T13:43:45;4.03;;;3.00;;
12535;SDS011;6334;48.696;2.114;2024-03-02T13:46:15;2.90;;;2.60;;
12535;SDS011;6334;48.696;2.114;2024-03-02T13:48:45;3.13;;;2.83;;
12535;SDS011;6334;48.696;2.114;2024-03-02T13:51:15;4.20;;;3.17;;
12535;SDS011;6334;48.696;2.114;2024-03-02T13:53:45;3.17;;;2.87;;
12535;SDS011;6334;48.696;2.114;2024-03-02T13:56:15;3.77;;;2.97;;
12535;SDS011;6334;48.696;2.114;2024-03-02T13:58:45;4.90;;;3.47;;
12535;SDS011;6334;48.696;2.114;2024-03-02T14:01:16;4.40;;;3.37;;
12535;SDS011;6334;48.696;2.114;2024-03-02T14:03:46;4.50;;;3.40;;
12535;SDS011;6334;48.696;2.114;2024-03-02T14:06:17;3.60;;;2.90;;
12535;SDS011;6334;48.696;2.114;2024-03-02T14:08:47;3.30;;;3.00;;
12535;SDS011;6334;48.696;2.114;2024-03-02T14:11:18;2.93;;;2.70;;
12535;SDS011;6334;48.696;2.114;2024-03-02T14:13:48;2.53;;;2.33;;
12535;SDS011;6334;48.696;2.114;2024-03-02T14:16:19;2.73;;;2.53;;
12535;SDS011;6334;48.696;2.114;2024-03-02T14:18:49;3.13;;;2.17;;
12535;SDS011;6334;48.696;2.114;2024-03-02T14:21:19;2.50;;;2.30;;
12535;SDS011;6334;48.696;2.114;2024-03-02T14:23:49;4.07;;;2.90;;
12535;SDS011;6334;48.696;2.114;2024-03-02T14:26:20;1.40;;;1.30;;
12535;SDS011;6334;48.696;2.114;2024-03-02T14:28:50;1.73;;;1.63;;
12535;SDS011;6334;48.696;2.114;2024-03-02T14:31:21;2.37;;;2.17;;
12535;SDS011;6334;48.696;2.114;2024-03-02T14:33:52;2.53;;;2.33;;
12535;SDS011;6334;48.696;2.114;2024-03-02T14:36:22;2.40;;;2.20;;
12535;SDS011;6334;48.696;2.114;2024-03-02T14:38:52;2.47;;;2.27;;
12535;SDS011;6334;48.696;2.114;2024-03-02T14:41:23;4.10;;;2.40;;
12535;SDS011;6334;48.696;2.114;2024-03-02T14:43:54;2.53;;;2.33;;
12535;SDS011;6334;48.696;2.114;2024-03-02T14:46:24;1.80;;;1.70;;
12535;SDS011;6334;48.696;2.114;2024-03-02T14:48:54;2.23;;;2.03;;
12535;SDS011;6334;48.696;2.114;2024-03-02T14:51:25;1.83;;;1.73;;
12535;SDS011;6334;48.696;2.114;2024-03-02T14:53:55;1.63;;;1.50;;
12535;SDS011;6334;48.696;2.114;2024-03-02T14:56:26;2.10;;;1.90;;
12535;SDS011;6334;48.696;2.114;2024-03-02T14:58:56;1.73;;;1.63;;
12535;SDS011;6334;48.696;2.114;2024-03-02T15:01:27;1.67;;;1.57;;
12535;SDS011;6334;48.696;2.114;2024-03-02T15:03:57;1.20;;;1.20;;
12535;SDS011;6334;48.696;2.114;2024-03-02T15:06:28;2.33;;;2.13;;
12535;SDS011;6334;48.696;2.114;2024-03-02T15:08:58;4.17;;;3.27;;
12535;SDS011;6334;48.696;2.114;2024-03-02T15:11:29;4.00;;;2.77;;
12535;SDS011;6334;48.696;2.114;2024-03-02T15:13:59;1.80;;;1.67;;
12535;SDS011;6334;48.696;2.114;2024-03-02T15:16:30;1.87;;;1.73;;
12535;SDS011;6334;48.696;2.114;2024-03-02T15:19:00;1.90;;;1.73;;
12535;SDS011;6334;48.696;2.114;2024-03-02T15:21:30;1.70;;;1.60;;
12535;SDS011;6334;48.696;2.114;2024-03-02T15:24:01;1.53;;;1.27;;
12535;SDS011;6334;48.696;2.114;2024-03-02T15:26:30;1.50;;;1.40;;